sensor_id;sensor_type;location;lat;lon;timestamp;pressure;altitude;pressure_sealevel;temperature;humidity
18014;BME280;9132;47.946;10.394;2023-12-20T00:01:24;94107.31;;;4.53;100.00
18014;BME280;9132;47.946;10.394;2023-12-20T00:03:51;94108.31;;;4.52;100.00
18014;BME280;9132;47.946;10.394;2023-12-20T00:06:17;94100.97;;;4.56;100.00
18014;BME280;9132;47.946;10.394;2023-12-20T00:08:44;94092.00;;;4.58;100.00
18014;BME280;9132;47.946;10.394;2023-12-20T00:11:12;94093.63;;;4.59;100.00
18014;BME280;9132;47.946;10.394;2023-12-20T00:13:38;94086.78;;;4.58;100.00
18014;BME280;9132;47.946;10.394;2023-12-20T00:16:05;94080.91;;;4.64;100.00
18014;BME280;9132;47.946;10.394;2023-12-20T00:18:32;94086.16;;;4.64;100.00
18014;BME280;9132;47.946;10.394;2023-12-20T00:20:58;94090.38;;;4.65;100.00
18014;BME280;9132;47.946;10.394;2023-12-20T00:23:25;94098.22;;;4.65;100.00
18014;BME280;9132;47.946;10.394;2023-12-20T00:25:51;94097.09;;;4.68;100.00
18014;BME280;9132;47.946;10.394;2023-12-20T00:28:19;94098.41;;;4.72;100.00
18014;BME280;9132;47.946;10.394;2023-12-20T00:30:46;94097.59;;;4.63;100.00
18014;BME280;9132;47.946;10.394;2023-12-20T00:33:12;94107.38;;;4.70;100.00
18014;BME280;9132;47.946;10.394;2023-12-20T00:35:39;94100.84;;;4.65;100.00
18014;BME280;9132;47.946;10.394;2023-12-20T00:38:05;94084.66;;;4.62;100.00
18014;BME280;9132;47.946;10.394;2023-12-20T00:40:34;94079.75;;;4.59;100.00
18014;BME280;9132;47.946;10.394;2023-12-20T00:43:00;94086.09;;;4.56;100.00
18014;BME280;9132;47.946;10.394;2023-12-20T00:45:28;94075.16;;;4.53;100.00
18014;BME280;9132;47.946;10.394;2023-12-20T00:47:54;94075.34;;;4.51;100.00
18014;BME280;9132;47.946;10.394;2023-12-20T00:50:21;94062.72;;;4.47;100.00
18014;BME280;9132;47.946;10.394;2023-12-20T00:52:48;94075.97;;;4.45;100.00
18014;BME280;9132;47.946;10.394;2023-12-20T00:55:14;94076.28;;;4.42;100.00
18014;BME280;9132;47.946;10.394;2023-12-20T00:57:41;94085.06;;;4.41;100.00
18014;BME280;9132;47.946;10.394;2023-12-20T01:00:08;94079.34;;;4.37;100.00
18014;BME280;9132;47.946;10.394;2023-12-20T01:02:37;94088.00;;;4.30;100.00
18014;BME280;9132;47.946;10.394;2023-12-20T01:05:04;94044.31;;;4.06;100.00
18014;BME280;9132;47.946;10.394;2023-12-20T01:07:32;94064.31;;;4.23;100.00
18014;BME280;9132;47.946;10.394;2023-12-20T01:09:58;94071.94;;;4.16;100.00
18014;BME280;9132;47.946;10.394;2023-12-20T01:12:25;94049.72;;;4.12;100.00
18014;BME280;9132;47.946;10.394;2023-12-20T01:14:51;94066.56;;;4.18;100.00
18014;BME280;9132;47.946;10.394;2023-12-20T01:17:18;94060.16;;;4.12;100.00
18014;BME280;9132;47.946;10.394;2023-12-20T01:19:46;94045.97;;;4.07;100.00
18014;BME280;9132;47.946;10.394;2023-12-20T01:22:12;94050.34;;;4.06;100.00
18014;BME280;9132;47.946;10.394;2023-12-20T01:24:39;94031.25;;;4.06;100.00
18014;BME280;9132;47.946;10.394;2023-12-20T01:27:05;94021.47;;;4.08;100.00
18014;BME280;9132;47.946;10.394;2023-12-20T01:29:32;94018.19;;;4.06;100.00
18014;BME280;9132;47.946;10.394;2023-12-20T01:31:58;94024.25;;;4.06;100.00
18014;BME280;9132;47.946;10.394;2023-12-20T01:34:25;94023.59;;;4.12;100.00
18014;BME280;9132;47.946;10.394;2023-12-20T01:36:53;94026.88;;;4.14;100.00
18014;BME280;9132;47.946;10.394;2023-12-20T01:39:19;94024.41;;;4.13;100.00
18014;BME280;9132;47.946;10.394;2023-12-20T01:41:46;94015.13;;;4.10;100.00
18014;BME280;9132;47.946;10.394;2023-12-20T01:44:12;94048.91;;;4.12;100.00
18014;BME280;9132;47.946;10.394;2023-12-20T01:46:39;94005.16;;;4.06;100.00
18014;BME280;9132;47.946;10.394;2023-12-20T01:49:06;94019.00;;;3.98;100.00
18014;BME280;9132;47.946;10.394;2023-12-20T01:51:33;94009.31;;;3.90;100.00
18014;BME280;9132;47.946;10.394;2023-12-20T01:54:01;93996.09;;;3.84;100.00
18014;BME280;9132;47.946;10.394;2023-12-20T01:56:28;93992.00;;;3.81;100.00
18014;BME280;9132;47.946;10.394;2023-12-20T01:58:56;93982.72;;;3.79;100.00
18014;BME280;9132;47.946;10.394;2023-12-20T02:01:23;93989.06;;;3.76;100.00
18014;BME280;9132;47.946;10.394;2023-12-20T02:03:51;93987.94;;;3.79;100.00
18014;BME280;9132;47.946;10.394;2023-12-20T02:06:18;93983.84;;;3.76;100.00
18014;BME280;9132;47.946;10.394;2023-12-20T02:08:45;93979.13;;;3.80;100.00
18014;BME280;9132;47.946;10.394;2023-12-20T02:11:13;94000.34;;;3.85;100.00
18014;BME280;9132;47.946;10.394;2023-12-20T02:13:38;93992.34;;;3.86;100.00
18014;BME280;9132;47.946;10.394;2023-12-20T02:16:05;93989.28;;;3.91;100.00
18014;BME280;9132;47.946;10.394;2023-12-20T02:18:32;93989.63;;;3.96;100.00
18014;BME280;9132;47.946;10.394;2023-12-20T02:20:59;93993.91;;;4.05;100.00
18014;BME280;9132;47.946;10.394;2023-12-20T02:23:27;94003.03;;;4.09;100.00
18014;BME280;9132;47.946;10.394;2023-12-20T02:25:53;93992.28;;;4.12;100.00
18014;BME280;9132;47.946;10.394;2023-12-20T02:28:20;93979.09;;;4.14;100.00
18014;BME280;9132;47.946;10.394;2023-12-20T02:30:47;93975.47;;;4.15;100.00
18014;BME280;9132;47.946;10.394;2023-12-20T02:33:15;93964.22;;;4.14;100.00
18014;BME280;9132;47.946;10.394;2023-12-20T02:35:42;93959.69;;;4.16;100.00
18014;BME280;9132;47.946;10.394;2023-12-20T02:38:09;93963.56;;;4.12;100.00
18014;BME280;9132;47.946;10.394;2023-12-20T02:40:37;93998.00;;;4.16;100.00
18014;BME280;9132;47.946;10.394;2023-12-20T02:43:03;93970.13;;;4.16;100.00
18014;BME280;9132;47.946;10.394;2023-12-20T02:45:30;93985.28;;;4.21;100.00
18014;BME280;9132;47.946;10.394;2023-12-20T02:47:56;93991.50;;;4.20;100.00
18014;BME280;9132;47.946;10.394;2023-12-20T02:50:23;93946.91;;;4.05;100.00
18014;BME280;9132;47.946;10.394;2023-12-20T02:52:49;93987.75;;;4.23;100.00
18014;BME280;9132;47.946;10.394;2023-12-20T02:55:16;93981.88;;;4.21;100.00
18014;BME280;9132;47.946;10.394;2023-12-20T02:57:44;93999.66;;;4.17;100.00
18014;BME280;9132;47.946;10.394;2023-12-20T03:00:11;93990.16;;;4.08;100.00
18014;BME280;9132;47.946;10.394;2023-12-20T03:02:37;94015.03;;;3.94;100.00
18014;BME280;9132;47.946;10.394;2023-12-20T03:05:04;94000.50;;;3.83;100.00
18014;BME280;9132;47.946;10.394;2023-12-20T03:07:31;93997.50;;;3.70;100.00
18014;BME280;9132;47.946;10.394;2023-12-20T03:09:58;93992.59;;;3.67;100.00
18014;BME280;9132;47.946;10.394;2023-12-20T03:12:24;93991.28;;;3.63;100.00
18014;BME280;9132;47.946;10.394;2023-12-20T03:14:52;93995.53;;;3.64;100.00
18014;BME280;9132;47.946;10.394;2023-12-20T03:17:18;93985.22;;;3.62;100.00
18014;BME280;9132;47.946;10.394;2023-12-20T03:19:45;93980.00;;;3.62;100.00
18014;BME280;9132;47.946;10.394;2023-12-20T03:22:12;93997.44;;;3.62;100.00
18014;BME280;9132;47.946;10.394;2023-12-20T03:24:38;93999.91;;;3.63;100.00
18014;BME280;9132;47.946;10.394;2023-12-20T03:27:05;94002.34;;;3.57;100.00
18014;BME280;9132;47.946;10.394;2023-12-20T03:29:31;94007.56;;;3.57;100.00
18014;BME280;9132;47.946;10.394;2023-12-20T03:31:59;94016.94;;;3.49;100.00
18014;BME280;9132;47.946;10.394;2023-12-20T03:34:26;94021.66;;;3.46;100.00
18014;BME280;9132;47.946;10.394;2023-12-20T03:36:54;94008.59;;;3.38;100.00
18014;BME280;9132;47.946;10.394;2023-12-20T03:39:20;94013.94;;;3.36;100.00
18014;BME280;9132;47.946;10.394;2023-12-20T03:41:47;94028.56;;;3.29;100.00
18014;BME280;9132;47.946;10.394;2023-12-20T03:44:13;94009.28;;;3.22;100.00
18014;BME280;9132;47.946;10.394;2023-12-20T03:46:40;94022.84;;;3.25;100.00
18014;BME280;9132;47.946;10.394;2023-12-20T03:49:08;94017.75;;;3.24;100.00
18014;BME280;9132;47.946;10.394;2023-12-20T03:51:34;94015.31;;;3.22;100.00
18014;BME280;9132;47.946;10.394;2023-12-20T03:54:01;94017.56;;;3.17;100.00
18014;BME280;9132;47.946;10.394;2023-12-20T03:56:27;94009.75;;;3.17;100.00
18014;BME280;9132;47.946;10.394;2023-12-20T03:58:54;93994.91;;;3.18;100.00
18014;BME280;9132;47.946;10.394;2023-12-20T04:01:20;94003.88;;;3.15;100.00
18014;BME280;9132;47.946;10.394;2023-12-20T04:03:47;93993.59;;;3.14;100.00
18014;BME280;9132;47.946;10.394;2023-12-20T04:06:17;94008.41;;;3.13;100.00
18014;BME280;9132;47.946;10.394;2023-12-20T04:08:44;93993.59;;;3.14;100.00
18014;BME280;9132;47.946;10.394;2023-12-20T04:11:10;93996.06;;;3.15;100.00
18014;BME280;9132;47.946;10.394;2023-12-20T04:13:37;93983.63;;;3.09;100.00
18014;BME280;9132;47.946;10.394;2023-12-20T04:16:04;94003.72;;;3.17;100.00
18014;BME280;9132;47.946;10.394;2023-12-20T04:18:31;94009.75;;;3.17;100.00
18014;BME280;9132;47.946;10.394;2023-12-20T04:20:58;94013.84;;;3.20;100.00
18014;BME280;9132;47.946;10.394;2023-12-20T04:23:26;94028.88;;;3.26;100.00
18014;BME280;9132;47.946;10.394;2023-12-20T04:25:54;94033.91;;;3.28;100.00
18014;BME280;9132;47.946;10.394;2023-12-20T04:28:20;94028.88;;;3.26;100.00
18014;BME280;9132;47.946;10.394;2023-12-20T04:30:47;94007.75;;;3.11;100.00
18014;BME280;9132;47.946;10.394;2023-12-20T04:33:13;94048.91;;;3.25;100.00
18014;BME280;9132;47.946;10.394;2023-12-20T04:35:40;94061.44;;;3.22;100.00
18014;BME280;9132;47.946;10.394;2023-12-20T04:38:08;94064.84;;;3.22;100.00
18014;BME280;9132;47.946;10.394;2023-12-20T04:40:36;94054.06;;;3.17;100.00
18014;BME280;9132;47.946;10.394;2023-12-20T04:43:03;94049.94;;;3.15;100.00
18014;BME280;9132;47.946;10.394;2023-12-20T04:45:29;94049.13;;;3.14;100.00
18014;BME280;9132;47.946;10.394;2023-12-20T04:47:56;94093.63;;;3.13;100.00
18014;BME280;9132;47.946;10.394;2023-12-20T04:50:22;94076.50;;;3.10;100.00
18014;BME280;9132;47.946;10.394;2023-12-20T04:52:49;94081.69;;;3.10;100.00
18014;BME280;9132;47.946;10.394;2023-12-20T04:55:15;94091.31;;;3.10;100.00
18014;BME280;9132;47.946;10.394;2023-12-20T04:57:43;94081.31;;;3.05;100.00
18014;BME280;9132;47.946;10.394;2023-12-20T05:00:10;94085.72;;;3.05;100.00
18014;BME280;9132;47.946;10.394;2023-12-20T05:02:37;94090.41;;;3.01;100.00
18014;BME280;9132;47.946;10.394;2023-12-20T05:05:04;94088.09;;;2.98;100.00
18014;BME280;9132;47.946;10.394;2023-12-20T05:07:31;94119.53;;;2.96;100.00
18014;BME280;9132;47.946;10.394;2023-12-20T05:09:58;94088.41;;;2.95;100.00
18014;BME280;9132;47.946;10.394;2023-12-20T05:12:24;94091.59;;;2.89;100.00
18014;BME280;9132;47.946;10.394;2023-12-20T05:14:53;94100.69;;;2.85;100.00
18014;BME280;9132;47.946;10.394;2023-12-20T05:17:20;94106.19;;;2.82;100.00
18014;BME280;9132;47.946;10.394;2023-12-20T05:19:46;94117.72;;;2.79;100.00
18014;BME280;9132;47.946;10.394;2023-12-20T05:22:13;94098.00;;;2.76;100.00
18014;BME280;9132;47.946;10.394;2023-12-20T05:24:39;94106.09;;;2.73;100.00
18014;BME280;9132;47.946;10.394;2023-12-20T05:27:06;94113.25;;;2.71;100.00
18014;BME280;9132;47.946;10.394;2023-12-20T05:29:33;94127.69;;;2.66;100.00
18014;BME280;9132;47.946;10.394;2023-12-20T05:32:00;94116.44;;;2.65;100.00
18014;BME280;9132;47.946;10.394;2023-12-20T05:34:28;94123.44;;;2.65;100.00
18014;BME280;9132;47.946;10.394;2023-12-20T05:36:54;94125.50;;;2.61;100.00
18014;BME280;9132;47.946;10.394;2023-12-20T05:39:21;94151.19;;;2.56;100.00
18014;BME280;9132;47.946;10.394;2023-12-20T05:41:48;94134.88;;;2.54;100.00
18014;BME280;9132;47.946;10.394;2023-12-20T05:44:14;94126.66;;;2.49;100.00
18014;BME280;9132;47.946;10.394;2023-12-20T05:46:41;94136.44;;;2.47;100.00
18014;BME280;9132;47.946;10.394;2023-12-20T05:49:08;94133.59;;;2.40;100.00
18014;BME280;9132;47.946;10.394;2023-12-20T05:51:36;94132.09;;;2.38;100.00
18014;BME280;9132;47.946;10.394;2023-12-20T05:54:02;94139.66;;;2.31;100.00
18014;BME280;9132;47.946;10.394;2023-12-20T05:56:29;94139.41;;;2.24;100.00
18014;BME280;9132;47.946;10.394;2023-12-20T05:58:55;94149.88;;;2.15;100.00
18014;BME280;9132;47.946;10.394;2023-12-20T06:01:24;94158.38;;;2.07;100.00
18014;BME280;9132;47.946;10.394;2023-12-20T06:03:50;94149.34;;;2.01;100.00
18014;BME280;9132;47.946;10.394;2023-12-20T06:06:18;94154.16;;;1.96;100.00
18014;BME280;9132;47.946;10.394;2023-12-20T06:08:44;94159.50;;;1.95;100.00
18014;BME280;9132;47.946;10.394;2023-12-20T06:11:11;94175.13;;;1.85;100.00
18014;BME280;9132;47.946;10.394;2023-12-20T06:13:38;94177.63;;;1.77;100.00
18014;BME280;9132;47.946;10.394;2023-12-20T06:16:06;94187.47;;;1.73;100.00
18014;BME280;9132;47.946;10.394;2023-12-20T06:18:32;94179.94;;;1.70;100.00
18014;BME280;9132;47.946;10.394;2023-12-20T06:20:59;94182.00;;;1.67;100.00
18014;BME280;9132;47.946;10.394;2023-12-20T06:23:27;94179.69;;;1.63;100.00
18014;BME280;9132;47.946;10.394;2023-12-20T06:25:53;94165.88;;;1.63;100.00
18014;BME280;9132;47.946;10.394;2023-12-20T06:28:20;94162.44;;;1.62;100.00
18014;BME280;9132;47.946;10.394;2023-12-20T06:30:47;94171.06;;;1.63;100.00
18014;BME280;9132;47.946;10.394;2023-12-20T06:33:14;94178.31;;;1.59;100.00
18014;BME280;9132;47.946;10.394;2023-12-20T06:35:41;94160.00;;;1.61;100.00
18014;BME280;9132;47.946;10.394;2023-12-20T06:38:07;94167.81;;;1.61;100.00
18014;BME280;9132;47.946;10.394;2023-12-20T06:40:36;94169.97;;;1.66;100.00
18014;BME280;9132;47.946;10.394;2023-12-20T06:43:02;94176.81;;;1.67;100.00
18014;BME280;9132;47.946;10.394;2023-12-20T06:45:29;94165.31;;;1.69;100.00
18014;BME280;9132;47.946;10.394;2023-12-20T06:47:55;94173.81;;;1.71;100.00
18014;BME280;9132;47.946;10.394;2023-12-20T06:50:22;94175.97;;;1.76;100.00
18014;BME280;9132;47.946;10.394;2023-12-20T06:52:48;94183.38;;;1.80;100.00
18014;BME280;9132;47.946;10.394;2023-12-20T06:55:15;94183.09;;;1.83;100.00
18014;BME280;9132;47.946;10.394;2023-12-20T06:57:44;94186.88;;;1.89;100.00
18014;BME280;9132;47.946;10.394;2023-12-20T07:00:11;94194.28;;;1.94;100.00
18014;BME280;9132;47.946;10.394;2023-12-20T07:02:38;94201.13;;;1.95;100.00
18014;BME280;9132;47.946;10.394;2023-12-20T07:05:05;94203.44;;;1.98;100.00
18014;BME280;9132;47.946;10.394;2023-12-20T07:07:32;94204.13;;;2.00;100.00
18014;BME280;9132;47.946;10.394;2023-12-20T07:09:58;94205.38;;;2.05;100.00
18014;BME280;9132;47.946;10.394;2023-12-20T07:12:24;94192.88;;;2.09;100.00
18014;BME280;9132;47.946;10.394;2023-12-20T07:14:52;94202.84;;;2.14;100.00
18014;BME280;9132;47.946;10.394;2023-12-20T07:17:19;94211.34;;;2.16;100.00
18014;BME280;9132;47.946;10.394;2023-12-20T07:19:46;94209.28;;;2.19;100.00
18014;BME280;9132;47.946;10.394;2023-12-20T07:22:13;94212.28;;;2.24;100.00
18014;BME280;9132;47.946;10.394;2023-12-20T07:24:39;94212.28;;;2.24;100.00
18014;BME280;9132;47.946;10.394;2023-12-20T07:27:06;94211.16;;;2.27;100.00
18014;BME280;9132;47.946;10.394;2023-12-20T07:29:32;94208.44;;;2.28;100.00
18014;BME280;9132;47.946;10.394;2023-12-20T07:32:00;94193.38;;;2.22;100.00
18014;BME280;9132;47.946;10.394;2023-12-20T07:34:27;94209.66;;;2.34;100.00
18014;BME280;9132;47.946;10.394;2023-12-20T07:36:53;94210.31;;;2.36;100.00
18014;BME280;9132;47.946;10.394;2023-12-20T07:39:20;94217.03;;;2.39;100.00
18014;BME280;9132;47.946;10.394;2023-12-20T07:41:46;94217.03;;;2.39;100.00
18014;BME280;9132;47.946;10.394;2023-12-20T07:44:12;94220.03;;;2.44;100.00
18014;BME280;9132;47.946;10.394;2023-12-20T07:46:40;94208.53;;;2.46;100.00
18014;BME280;9132;47.946;10.394;2023-12-20T07:49:08;94216.88;;;2.50;100.00
18014;BME280;9132;47.946;10.394;2023-12-20T07:51:35;94214.63;;;2.55;100.00
18014;BME280;9132;47.946;10.394;2023-12-20T07:54:02;94223.00;;;2.59;100.00
18014;BME280;9132;47.946;10.394;2023-12-20T07:56:30;94234.91;;;2.61;100.00
18014;BME280;9132;47.946;10.394;2023-12-20T07:58:56;94229.41;;;2.64;100.00
18014;BME280;9132;47.946;10.394;2023-12-20T08:01:23;94253.66;;;2.65;100.00
18014;BME280;9132;47.946;10.394;2023-12-20T08:03:49;94242.94;;;2.68;100.00
18014;BME280;9132;47.946;10.394;2023-12-20T08:06:17;94240.91;;;2.71;100.00
18014;BME280;9132;47.946;10.394;2023-12-20T08:08:44;94250.34;;;2.72;100.00
18014;BME280;9132;47.946;10.394;2023-12-20T08:11:10;94256.91;;;2.76;100.00
18014;BME280;9132;47.946;10.394;2023-12-20T08:13:37;94250.44;;;2.81;100.00
18014;BME280;9132;47.946;10.394;2023-12-20T08:16:04;94262.22;;;2.85;100.00
18014;BME280;9132;47.946;10.394;2023-12-20T08:18:30;94256.03;;;2.86;100.00
18014;BME280;9132;47.946;10.394;2023-12-20T08:20:57;94252.34;;;2.88;100.00
18014;BME280;9132;47.946;10.394;2023-12-20T08:23:25;94251.22;;;2.91;100.00
18014;BME280;9132;47.946;10.394;2023-12-20T08:25:51;94247.66;;;2.92;100.00
18014;BME280;9132;47.946;10.394;2023-12-20T08:28:18;94250.94;;;2.94;100.00
18014;BME280;9132;47.946;10.394;2023-12-20T08:30:44;94254.06;;;2.97;100.00
18014;BME280;9132;47.946;10.394;2023-12-20T08:33:11;94246.09;;;2.99;100.00
18014;BME280;9132;47.946;10.394;2023-12-20T08:35:38;94253.63;;;3.02;100.00
18014;BME280;9132;47.946;10.394;2023-12-20T08:38:04;94237.69;;;3.05;100.00
18014;BME280;9132;47.946;10.394;2023-12-20T08:40:32;94236.59;;;3.08;100.00
18014;BME280;9132;47.946;10.394;2023-12-20T08:42:59;94237.00;;;3.13;100.00
18014;BME280;9132;47.946;10.394;2023-12-20T08:45:25;94244.50;;;3.16;100.00
18014;BME280;9132;47.946;10.394;2023-12-20T08:47:52;94245.03;;;3.19;100.00
18014;BME280;9132;47.946;10.394;2023-12-20T08:50:18;94247.47;;;3.21;100.00
18014;BME280;9132;47.946;10.394;2023-12-20T08:52:45;94242.94;;;3.23;100.00
18014;BME280;9132;47.946;10.394;2023-12-20T08:55:11;94239.53;;;3.22;100.00
18014;BME280;9132;47.946;10.394;2023-12-20T08:57:39;94244.16;;;3.29;100.00
18014;BME280;9132;47.946;10.394;2023-12-20T09:00:07;94247.72;;;3.28;100.00
18014;BME280;9132;47.946;10.394;2023-12-20T09:02:34;94246.59;;;3.30;100.00
18014;BME280;9132;47.946;10.394;2023-12-20T09:05:01;94254.00;;;3.35;100.00
18014;BME280;9132;47.946;10.394;2023-12-20T09:07:28;94256.44;;;3.36;100.00
18014;BME280;9132;47.946;10.394;2023-12-20T09:09:56;94256.97;;;3.40;100.00
18014;BME280;9132;47.946;10.394;2023-12-20T09:12:22;94264.13;;;3.38;100.00
18014;BME280;9132;47.946;10.394;2023-12-20T09:14:51;94250.13;;;3.39;100.00
18014;BME280;9132;47.946;10.394;2023-12-20T09:17:18;94249.31;;;3.38;100.00
18014;BME280;9132;47.946;10.394;2023-12-20T09:19:45;94269.72;;;3.43;100.00
18014;BME280;9132;47.946;10.394;2023-12-20T09:22:12;94263.25;;;3.47;100.00
18014;BME280;9132;47.946;10.394;2023-12-20T09:24:39;94259.97;;;3.45;100.00
18014;BME280;9132;47.946;10.394;2023-12-20T09:27:05;94253.78;;;3.46;100.00
18014;BME280;9132;47.946;10.394;2023-12-20T09:29:32;94255.56;;;3.45;100.00
18014;BME280;9132;47.946;10.394;2023-12-20T09:32:00;94257.88;;;3.48;100.00
18014;BME280;9132;47.946;10.394;2023-12-20T09:34:26;94268.47;;;3.47;100.00
18014;BME280;9132;47.946;10.394;2023-12-20T09:36:53;94260.66;;;3.47;100.00
18014;BME280;9132;47.946;10.394;2023-12-20T09:39:20;94249.06;;;3.49;100.00
18014;BME280;9132;47.946;10.394;2023-12-20T09:41:54;94237.19;;;3.47;100.00
18014;BME280;9132;47.946;10.394;2023-12-20T09:44:26;94241.81;;;3.53;100.00
18014;BME280;9132;47.946;10.394;2023-12-20T09:46:52;94234.78;;;3.54;100.00
18014;BME280;9132;47.946;10.394;2023-12-20T09:49:22;94233.50;;;3.58;100.00
18014;BME280;9132;47.946;10.394;2023-12-20T09:51:50;94236.13;;;3.58;100.00
18014;BME280;9132;47.946;10.394;2023-12-20T09:54:17;94221.97;;;3.60;100.00
18014;BME280;9132;47.946;10.394;2023-12-20T09:56:44;94214.97;;;3.61;100.00
18014;BME280;9132;47.946;10.394;2023-12-20T09:59:11;94221.38;;;3.66;100.00
18014;BME280;9132;47.946;10.394;2023-12-20T10:01:38;94218.91;;;3.65;100.00
18014;BME280;9132;47.946;10.394;2023-12-20T10:04:06;94216.38;;;3.73;100.00
18014;BME280;9132;47.946;10.394;2023-12-20T10:06:36;94223.22;;;3.74;100.00
18014;BME280;9132;47.946;10.394;2023-12-20T10:09:02;94207.56;;;3.74;100.00
18014;BME280;9132;47.946;10.394;2023-12-20T10:11:30;94214.09;;;3.78;100.00
18014;BME280;9132;47.946;10.394;2023-12-20T10:13:59;94216.41;;;3.81;100.00
18014;BME280;9132;47.946;10.394;2023-12-20T10:16:26;94219.09;;;3.89;100.00
18014;BME280;9132;47.946;10.394;2023-12-20T10:18:53;94214.88;;;3.88;100.00
18014;BME280;9132;47.946;10.394;2023-12-20T10:21:19;94217.00;;;3.93;100.00
18014;BME280;9132;47.946;10.394;2023-12-20T10:23:47;94209.38;;;4.00;100.00
18014;BME280;9132;47.946;10.394;2023-12-20T10:26:19;94212.19;;;4.06;100.00
18014;BME280;9132;47.946;10.394;2023-12-20T10:28:50;94192.59;;;4.02;100.00
18014;BME280;9132;47.946;10.394;2023-12-20T10:31:26;94200.13;;;4.05;100.00
18014;BME280;9132;47.946;10.394;2023-12-20T10:33:52;94201.09;;;4.04;100.00
18014;BME280;9132;47.946;10.394;2023-12-20T10:36:19;94199.81;;;4.08;100.00
18014;BME280;9132;47.946;10.394;2023-12-20T10:38:50;94199.00;;;4.08;100.00
18014;BME280;9132;47.946;10.394;2023-12-20T10:41:23;94187.28;;;4.12;100.00
18014;BME280;9132;47.946;10.394;2023-12-20T10:43:51;94173.09;;;4.14;100.00
18014;BME280;9132;47.946;10.394;2023-12-20T10:46:18;94185.06;;;4.25;100.00
18014;BME280;9132;47.946;10.394;2023-12-20T10:48:46;94168.28;;;4.28;100.00
18014;BME280;9132;47.946;10.394;2023-12-20T10:51:14;94178.72;;;4.28;100.00
18014;BME280;9132;47.946;10.394;2023-12-20T10:53:44;94172.19;;;4.32;100.00
18014;BME280;9132;47.946;10.394;2023-12-20T10:56:15;94183.19;;;4.35;100.00
18014;BME280;9132;47.946;10.394;2023-12-20T10:58:43;94179.09;;;4.33;100.00
18014;BME280;9132;47.946;10.394;2023-12-20T11:01:12;94188.72;;;4.32;100.00
18014;BME280;9132;47.946;10.394;2023-12-20T11:03:43;94188.84;;;4.31;100.00
18014;BME280;9132;47.946;10.394;2023-12-20T11:06:26;94190.16;;;4.27;100.00
18014;BME280;9132;47.946;10.394;2023-12-20T11:09:01;94184.94;;;4.27;100.00
18014;BME280;9132;47.946;10.394;2023-12-20T11:11:44;94184.75;;;4.28;100.00
18014;BME280;9132;47.946;10.394;2023-12-20T11:14:16;94177.91;;;4.27;100.00
18014;BME280;9132;47.946;10.394;2023-12-20T11:16:45;94182.47;;;4.25;100.00
18014;BME280;9132;47.946;10.394;2023-12-20T11:19:12;94168.13;;;4.29;100.00
18014;BME280;9132;47.946;10.394;2023-12-20T11:21:40;94170.13;;;4.35;100.00
18014;BME280;9132;47.946;10.394;2023-12-20T11:24:07;94163.91;;;4.36;100.00
18014;BME280;9132;47.946;10.394;2023-12-20T11:26:33;94163.28;;;4.43;100.00
18014;BME280;9132;47.946;10.394;2023-12-20T11:29:34;94159.56;;;4.45;100.00
18014;BME280;9132;47.946;10.394;2023-12-20T11:32:02;94155.34;;;4.52;100.00
18014;BME280;9132;47.946;10.394;2023-12-20T11:34:32;94154.53;;;4.52;100.00
18014;BME280;9132;47.946;10.394;2023-12-20T11:37:00;94155.47;;;4.51;100.00
18014;BME280;9132;47.946;10.394;2023-12-20T11:39:27;94150.25;;;4.51;100.00
18014;BME280;9132;47.946;10.394;2023-12-20T11:41:55;94156.31;;;4.51;100.00
18014;BME280;9132;47.946;10.394;2023-12-20T11:44:22;94151.22;;;4.41;100.00
18014;BME280;9132;47.946;10.394;2023-12-20T11:46:50;94158.44;;;4.48;100.00
18014;BME280;9132;47.946;10.394;2023-12-20T11:49:23;94163.81;;;4.46;100.00
18014;BME280;9132;47.946;10.394;2023-12-20T11:51:49;94161.38;;;4.53;100.00
18014;BME280;9132;47.946;10.394;2023-12-20T11:54:16;94152.22;;;4.49;100.00
18014;BME280;9132;47.946;10.394;2023-12-20T11:56:42;94145.38;;;4.48;100.00
18014;BME280;9132;47.946;10.394;2023-12-20T11:59:09;94153.22;;;4.48;100.00
18014;BME280;9132;47.946;10.394;2023-12-20T12:01:36;94146.19;;;4.48;100.00
18014;BME280;9132;47.946;10.394;2023-12-20T12:04:04;94150.75;;;4.46;100.00
18014;BME280;9132;47.946;10.394;2023-12-20T12:06:31;94144.19;;;4.42;100.00
18014;BME280;9132;47.946;10.394;2023-12-20T12:08:58;94158.22;;;4.41;100.00
18014;BME280;9132;47.946;10.394;2023-12-20T12:11:25;94158.22;;;4.41;100.00
18014;BME280;9132;47.946;10.394;2023-12-20T12:13:51;94149.25;;;4.44;100.00
18014;BME280;9132;47.946;10.394;2023-12-20T12:16:19;94148.31;;;4.45;100.00
18014;BME280;9132;47.946;10.394;2023-12-20T12:18:46;94150.06;;;4.44;100.00
18014;BME280;9132;47.946;10.394;2023-12-20T12:21:20;94153.34;;;4.46;100.00
18014;BME280;9132;47.946;10.394;2023-12-20T12:23:46;94146.63;;;4.44;100.00
18014;BME280;9132;47.946;10.394;2023-12-20T12:26:13;94145.81;;;4.43;100.00
18014;BME280;9132;47.946;10.394;2023-12-20T12:28:40;94141.09;;;4.38;100.00
18014;BME280;9132;47.946;10.394;2023-12-20T12:31:07;94132.72;;;4.35;100.00
18014;BME280;9132;47.946;10.394;2023-12-20T12:33:34;94134.31;;;4.28;100.00
18014;BME280;9132;47.946;10.394;2023-12-20T12:36:01;94135.63;;;4.32;100.00
18014;BME280;9132;47.946;10.394;2023-12-20T12:38:30;94127.66;;;4.33;100.00
18014;BME280;9132;47.946;10.394;2023-12-20T12:40:57;94129.97;;;4.36;100.00
18014;BME280;9132;47.946;10.394;2023-12-20T12:43:24;94120.69;;;4.42;100.00
18014;BME280;9132;47.946;10.394;2023-12-20T12:45:50;94124.63;;;4.46;100.00
18014;BME280;9132;47.946;10.394;2023-12-20T12:48:17;94127.22;;;4.46;100.00
18014;BME280;9132;47.946;10.394;2023-12-20T12:50:45;94125.44;;;4.47;100.00
18014;BME280;9132;47.946;10.394;2023-12-20T12:53:11;94120.88;;;4.49;100.00
18014;BME280;9132;47.946;10.394;2023-12-20T12:55:39;94123.50;;;4.49;100.00
18014;BME280;9132;47.946;10.394;2023-12-20T12:58:06;94116.63;;;4.48;100.00
18014;BME280;9132;47.946;10.394;2023-12-20T13:00:32;94124.94;;;4.43;100.00